Annapolis, Illinois
Current Conditions -  °F | °C
As of 12:55 PM on Tuesday 27 Jan 2015 (Local Time) from KRSV Reporting Station
Overcast Overcast  
Wind Chill: 26°   Ceiling: 1500
Heat Index: 32°   Visibility: 10mi
Dew Point: 31°   Wind: 6mph
Humidity: 95%   Direction: 350°N
Pressure: 30.15"   Gusts: NA
Location:  39.14°N, 87.82°W
Report Text: KRSV 271855Z AUTO 35005KT 10SM OVC015 00/M01 A3015 RMK AO2 T00001007
Loading
Personal Weather Stations






























Interactive Weather Map New forecast layout! Learn more

10-Day Weather Forecast

Advertisements
Track Severe Weather on mobile